Rechercher aéroport 
image banner adimage banner adimage banner ad
image banner ad

KOAR - Marina Muni

Situé à Marina, United States

ICAO - OAR, IATA - OAR

Données fournies par Airmate  

Information générale

Coordonnées: N36°40'54" W121°45'42"
Élévation : 137 feet MSL.
Variation magnétique : 15° East
Voir autres Aéroports à California

Données opérationnelles

Special qualification required
Heure actuelle UTC:
Heure actuelle locale:
Météo
METAR: KOAR 300015Z AUTO 28010G16KT 10SM OVC005 10/06 A2994 RMK AO2
Voir NOTAMs / SUP AIP / TFR affectant cet aéroport [VIEW]
Fréquences de communication: [VIEW]

Pistes:

Identifiant RWYQFULongueur (ft)Largeur (ft)SurfaceLDA (ft)
11122°348375ASPH
29302°348375ASPH

Coordonnées de l'aéroport

Adresse: Marina United States

Vue satellite de KOAR